sensor_id;sensor_type;location;lat;lon;timestamp;P1;durP1;ratioP1;P2;durP2;ratioP2
70866;SDS011;58487;53.474;49.470;2022-12-18T00:01:18;28.13;;;8.15;;
70866;SDS011;58487;53.474;49.470;2022-12-18T00:03:47;19.43;;;7.60;;
70866;SDS011;58487;53.474;49.470;2022-12-18T00:06:13;15.85;;;6.30;;
70866;SDS011;58487;53.474;49.470;2022-12-18T00:08:40;20.88;;;7.00;;
70866;SDS011;58487;53.474;49.470;2022-12-18T00:11:08;29.02;;;8.20;;
70866;SDS011;58487;53.474;49.470;2022-12-18T00:13:39;21.13;;;7.80;;
70866;SDS011;58487;53.474;49.470;2022-12-18T00:16:06;17.03;;;6.10;;
70866;SDS011;58487;53.474;49.470;2022-12-18T00:18:35;22.02;;;8.07;;
70866;SDS011;58487;53.474;49.470;2022-12-18T00:21:04;21.23;;;7.82;;
70866;SDS011;58487;53.474;49.470;2022-12-18T00:23:32;14.75;;;6.30;;
70866;SDS011;58487;53.474;49.470;2022-12-18T00:26:00;18.92;;;6.72;;
70866;SDS011;58487;53.474;49.470;2022-12-18T00:28:27;28.30;;;10.87;;
70866;SDS011;58487;53.474;49.470;2022-12-18T00:31:03;19.55;;;7.50;;
70866;SDS011;58487;53.474;49.470;2022-12-18T00:33:31;15.60;;;6.85;;
70866;SDS011;58487;53.474;49.470;2022-12-18T00:36:01;21.98;;;8.05;;
70866;SDS011;58487;53.474;49.470;2022-12-18T00:38:31;20.23;;;6.80;;
70866;SDS011;58487;53.474;49.470;2022-12-18T00:40:57;22.53;;;7.77;;
70866;SDS011;58487;53.474;49.470;2022-12-18T00:43:23;18.77;;;6.50;;
70866;SDS011;58487;53.474;49.470;2022-12-18T00:45:50;18.80;;;6.60;;
70866;SDS011;58487;53.474;49.470;2022-12-18T00:48:16;17.38;;;6.40;;
70866;SDS011;58487;53.474;49.470;2022-12-18T00:50:42;24.20;;;8.50;;
70866;SDS011;58487;53.474;49.470;2022-12-18T00:53:08;22.07;;;8.20;;
70866;SDS011;58487;53.474;49.470;2022-12-18T00:55:36;20.60;;;8.48;;
70866;SDS011;58487;53.474;49.470;2022-12-18T00:58:04;17.70;;;6.55;;
70866;SDS011;58487;53.474;49.470;2022-12-18T01:00:30;22.98;;;7.35;;
70866;SDS011;58487;53.474;49.470;2022-12-18T01:02:56;17.92;;;6.63;;
70866;SDS011;58487;53.474;49.470;2022-12-18T01:05:22;17.43;;;6.03;;
70866;SDS011;58487;53.474;49.470;2022-12-18T01:07:48;17.88;;;6.82;;
70866;SDS011;58487;53.474;49.470;2022-12-18T01:10:14;18.90;;;7.05;;
70866;SDS011;58487;53.474;49.470;2022-12-18T01:12:41;19.85;;;6.75;;
70866;SDS011;58487;53.474;49.470;2022-12-18T01:15:07;17.50;;;5.97;;
70866;SDS011;58487;53.474;49.470;2022-12-18T01:17:34;23.07;;;6.83;;
70866;SDS011;58487;53.474;49.470;2022-12-18T01:20:00;20.00;;;6.70;;
70866;SDS011;58487;53.474;49.470;2022-12-18T01:22:26;16.75;;;6.57;;
70866;SDS011;58487;53.474;49.470;2022-12-18T01:24:52;18.90;;;5.97;;
70866;SDS011;58487;53.474;49.470;2022-12-18T01:27:18;16.88;;;5.70;;
70866;SDS011;58487;53.474;49.470;2022-12-18T01:29:44;11.83;;;5.60;;
70866;SDS011;58487;53.474;49.470;2022-12-18T01:32:10;16.23;;;5.65;;
70866;SDS011;58487;53.474;49.470;2022-12-18T01:34:37;14.40;;;6.00;;
70866;SDS011;58487;53.474;49.470;2022-12-18T01:37:04;13.27;;;5.57;;
70866;SDS011;58487;53.474;49.470;2022-12-18T01:39:30;13.65;;;5.43;;
70866;SDS011;58487;53.474;49.470;2022-12-18T01:42:00;16.80;;;4.87;;
70866;SDS011;58487;53.474;49.470;2022-12-18T01:47:47;17.67;;;6.28;;
70866;SDS011;58487;53.474;49.470;2022-12-18T01:53:03;13.95;;;6.00;;
70866;SDS011;58487;53.474;49.470;2022-12-18T01:55:36;15.77;;;5.73;;
70866;SDS011;58487;53.474;49.470;2022-12-18T01:58:06;14.20;;;5.60;;
70866;SDS011;58487;53.474;49.470;2022-12-18T02:00:33;18.02;;;5.78;;
70866;SDS011;58487;53.474;49.470;2022-12-18T02:02:59;16.58;;;6.10;;
70866;SDS011;58487;53.474;49.470;2022-12-18T02:08:26;15.67;;;6.07;;
70866;SDS011;58487;53.474;49.470;2022-12-18T02:11:07;15.52;;;6.25;;
70866;SDS011;58487;53.474;49.470;2022-12-18T02:18:57;17.08;;;5.43;;
70866;SDS011;58487;53.474;49.470;2022-12-18T02:25:05;16.20;;;4.72;;
70866;SDS011;58487;53.474;49.470;2022-12-18T02:27:19;13.82;;;5.18;;
70866;SDS011;58487;53.474;49.470;2022-12-18T02:29:52;16.77;;;5.40;;
70866;SDS011;58487;53.474;49.470;2022-12-18T02:32:22;11.30;;;4.35;;
70866;SDS011;58487;53.474;49.470;2022-12-18T02:34:51;11.53;;;4.77;;
70866;SDS011;58487;53.474;49.470;2022-12-18T02:37:20;18.23;;;4.80;;
70866;SDS011;58487;53.474;49.470;2022-12-18T02:39:48;14.18;;;4.57;;
70866;SDS011;58487;53.474;49.470;2022-12-18T02:42:17;8.48;;;2.92;;
70866;SDS011;58487;53.474;49.470;2022-12-18T02:44:44;15.48;;;4.80;;
70866;SDS011;58487;53.474;49.470;2022-12-18T02:47:12;13.73;;;4.80;;
70866;SDS011;58487;53.474;49.470;2022-12-18T02:52:44;13.13;;;4.50;;
70866;SDS011;58487;53.474;49.470;2022-12-18T02:58:14;11.18;;;4.22;;
70866;SDS011;58487;53.474;49.470;2022-12-18T03:01:07;13.17;;;4.57;;
70866;SDS011;58487;53.474;49.470;2022-12-18T03:03:48;11.80;;;4.38;;
70866;SDS011;58487;53.474;49.470;2022-12-18T03:06:32;10.82;;;3.53;;
70866;SDS011;58487;53.474;49.470;2022-12-18T03:09:11;13.60;;;4.75;;
70866;SDS011;58487;53.474;49.470;2022-12-18T03:11:44;12.48;;;4.50;;
70866;SDS011;58487;53.474;49.470;2022-12-18T03:14:34;9.17;;;3.53;;
70866;SDS011;58487;53.474;49.470;2022-12-18T03:17:03;10.98;;;4.20;;
70866;SDS011;58487;53.474;49.470;2022-12-18T03:19:33;14.27;;;4.55;;
70866;SDS011;58487;53.474;49.470;2022-12-18T03:22:02;15.30;;;4.50;;
70866;SDS011;58487;53.474;49.470;2022-12-18T03:24:30;11.13;;;4.82;;
70866;SDS011;58487;53.474;49.470;2022-12-18T03:27:00;12.57;;;4.47;;
70866;SDS011;58487;53.474;49.470;2022-12-18T03:29:45;11.45;;;4.28;;
70866;SDS011;58487;53.474;49.470;2022-12-18T03:32:38;11.00;;;3.67;;
70866;SDS011;58487;53.474;49.470;2022-12-18T03:35:16;13.55;;;4.43;;
70866;SDS011;58487;53.474;49.470;2022-12-18T03:37:47;12.52;;;4.78;;
70866;SDS011;58487;53.474;49.470;2022-12-18T03:40:13;12.30;;;5.17;;
70866;SDS011;58487;53.474;49.470;2022-12-18T03:42:59;10.75;;;3.42;;
70866;SDS011;58487;53.474;49.470;2022-12-18T03:45:51;16.88;;;7.30;;
70866;SDS011;58487;53.474;49.470;2022-12-18T03:48:30;12.48;;;4.65;;
70866;SDS011;58487;53.474;49.470;2022-12-18T03:51:06;12.50;;;4.50;;
70866;SDS011;58487;53.474;49.470;2022-12-18T03:53:41;12.43;;;5.07;;
70866;SDS011;58487;53.474;49.470;2022-12-18T03:56:18;11.90;;;4.70;;
70866;SDS011;58487;53.474;49.470;2022-12-18T03:58:46;13.35;;;5.10;;
70866;SDS011;58487;53.474;49.470;2022-12-18T04:01:15;13.55;;;5.68;;
70866;SDS011;58487;53.474;49.470;2022-12-18T04:03:43;13.10;;;4.95;;
70866;SDS011;58487;53.474;49.470;2022-12-18T04:06:11;9.23;;;3.57;;
70866;SDS011;58487;53.474;49.470;2022-12-18T04:08:39;9.57;;;4.18;;
70866;SDS011;58487;53.474;49.470;2022-12-18T04:11:06;10.50;;;4.20;;
70866;SDS011;58487;53.474;49.470;2022-12-18T04:13:33;10.57;;;3.72;;
70866;SDS011;58487;53.474;49.470;2022-12-18T04:16:02;14.35;;;4.97;;
70866;SDS011;58487;53.474;49.470;2022-12-18T04:18:28;11.40;;;4.47;;
70866;SDS011;58487;53.474;49.470;2022-12-18T04:20:55;12.88;;;4.47;;
70866;SDS011;58487;53.474;49.470;2022-12-18T04:23:21;10.13;;;3.80;;
70866;SDS011;58487;53.474;49.470;2022-12-18T04:25:47;9.70;;;3.67;;
70866;SDS011;58487;53.474;49.470;2022-12-18T04:28:13;12.25;;;4.47;;
70866;SDS011;58487;53.474;49.470;2022-12-18T04:30:39;13.33;;;4.37;;
70866;SDS011;58487;53.474;49.470;2022-12-18T04:33:12;10.20;;;3.95;;
70866;SDS011;58487;53.474;49.470;2022-12-18T04:35:39;8.68;;;3.25;;
70866;SDS011;58487;53.474;49.470;2022-12-18T04:38:07;8.77;;;3.33;;
70866;SDS011;58487;53.474;49.470;2022-12-18T04:40:34;9.77;;;3.83;;
70866;SDS011;58487;53.474;49.470;2022-12-18T04:43:00;10.73;;;3.77;;
70866;SDS011;58487;53.474;49.470;2022-12-18T04:45:26;11.30;;;3.55;;
70866;SDS011;58487;53.474;49.470;2022-12-18T04:47:52;10.02;;;3.58;;
70866;SDS011;58487;53.474;49.470;2022-12-18T04:50:18;8.95;;;3.25;;
70866;SDS011;58487;53.474;49.470;2022-12-18T04:52:44;8.93;;;3.47;;
70866;SDS011;58487;53.474;49.470;2022-12-18T04:55:10;9.43;;;2.97;;
70866;SDS011;58487;53.474;49.470;2022-12-18T04:57:36;10.27;;;3.55;;
70866;SDS011;58487;53.474;49.470;2022-12-18T05:00:02;9.38;;;3.25;;
70866;SDS011;58487;53.474;49.470;2022-12-18T05:02:29;8.80;;;3.47;;
70866;SDS011;58487;53.474;49.470;2022-12-18T05:04:55;6.90;;;2.90;;
70866;SDS011;58487;53.474;49.470;2022-12-18T05:07:21;7.83;;;2.80;;
70866;SDS011;58487;53.474;49.470;2022-12-18T05:09:47;7.85;;;3.08;;
70866;SDS011;58487;53.474;49.470;2022-12-18T05:12:13;7.82;;;2.90;;
70866;SDS011;58487;53.474;49.470;2022-12-18T05:14:39;5.70;;;2.40;;
70866;SDS011;58487;53.474;49.470;2022-12-18T05:17:05;7.45;;;2.75;;
70866;SDS011;58487;53.474;49.470;2022-12-18T05:19:31;7.33;;;2.43;;
70866;SDS011;58487;53.474;49.470;2022-12-18T05:21:57;5.75;;;2.08;;
70866;SDS011;58487;53.474;49.470;2022-12-18T05:24:23;6.68;;;2.38;;
70866;SDS011;58487;53.474;49.470;2022-12-18T05:26:50;6.03;;;2.25;;
70866;SDS011;58487;53.474;49.470;2022-12-18T05:29:16;7.63;;;2.15;;
70866;SDS011;58487;53.474;49.470;2022-12-18T05:31:42;6.50;;;2.07;;
70866;SDS011;58487;53.474;49.470;2022-12-18T05:34:08;4.85;;;1.95;;
70866;SDS011;58487;53.474;49.470;2022-12-18T05:36:34;8.48;;;2.20;;
70866;SDS011;58487;53.474;49.470;2022-12-18T05:39:00;7.28;;;2.53;;
70866;SDS011;58487;53.474;49.470;2022-12-18T05:41:26;8.27;;;2.50;;
70866;SDS011;58487;53.474;49.470;2022-12-18T05:43:54;7.07;;;2.60;;
70866;SDS011;58487;53.474;49.470;2022-12-18T05:46:20;5.00;;;1.65;;
70866;SDS011;58487;53.474;49.470;2022-12-18T05:48:46;6.50;;;2.28;;
70866;SDS011;58487;53.474;49.470;2022-12-18T05:51:14;6.57;;;2.95;;
70866;SDS011;58487;53.474;49.470;2022-12-18T05:53:42;5.95;;;2.55;;
70866;SDS011;58487;53.474;49.470;2022-12-18T05:56:09;7.57;;;2.40;;
70866;SDS011;58487;53.474;49.470;2022-12-18T05:58:40;7.93;;;3.10;;
70866;SDS011;58487;53.474;49.470;2022-12-18T06:01:17;7.82;;;3.30;;
70866;SDS011;58487;53.474;49.470;2022-12-18T06:03:44;11.60;;;3.60;;
70866;SDS011;58487;53.474;49.470;2022-12-18T06:06:15;7.90;;;3.20;;
70866;SDS011;58487;53.474;49.470;2022-12-18T06:08:49;10.07;;;4.23;;
70866;SDS011;58487;53.474;49.470;2022-12-18T06:11:16;9.05;;;3.85;;
70866;SDS011;58487;53.474;49.470;2022-12-18T06:13:44;10.80;;;4.50;;
70866;SDS011;58487;53.474;49.470;2022-12-18T06:16:10;13.90;;;5.47;;
70866;SDS011;58487;53.474;49.470;2022-12-18T06:18:36;17.85;;;5.70;;
70866;SDS011;58487;53.474;49.470;2022-12-18T06:21:02;13.60;;;4.53;;
70866;SDS011;58487;53.474;49.470;2022-12-18T06:23:28;13.07;;;4.88;;
70866;SDS011;58487;53.474;49.470;2022-12-18T06:25:54;14.75;;;5.88;;
70866;SDS011;58487;53.474;49.470;2022-12-18T06:28:20;14.98;;;6.28;;
70866;SDS011;58487;53.474;49.470;2022-12-18T06:30:47;17.05;;;6.32;;
70866;SDS011;58487;53.474;49.470;2022-12-18T06:33:14;19.50;;;7.33;;
70866;SDS011;58487;53.474;49.470;2022-12-18T06:35:41;21.83;;;7.78;;
70866;SDS011;58487;53.474;49.470;2022-12-18T06:38:07;25.95;;;7.90;;
70866;SDS011;58487;53.474;49.470;2022-12-18T06:40:33;24.30;;;8.45;;
70866;SDS011;58487;53.474;49.470;2022-12-18T06:42:59;20.63;;;7.75;;
70866;SDS011;58487;53.474;49.470;2022-12-18T06:45:25;15.10;;;6.03;;
70866;SDS011;58487;53.474;49.470;2022-12-18T06:47:51;21.10;;;9.05;;
70866;SDS011;58487;53.474;49.470;2022-12-18T06:50:17;19.92;;;7.18;;
70866;SDS011;58487;53.474;49.470;2022-12-18T06:52:43;24.10;;;9.57;;
70866;SDS011;58487;53.474;49.470;2022-12-18T06:55:09;19.23;;;8.43;;
70866;SDS011;58487;53.474;49.470;2022-12-18T06:57:36;21.20;;;8.38;;
70866;SDS011;58487;53.474;49.470;2022-12-18T07:00:03;24.30;;;9.45;;
70866;SDS011;58487;53.474;49.470;2022-12-18T07:02:31;31.85;;;8.52;;
70866;SDS011;58487;53.474;49.470;2022-12-18T07:04:57;15.63;;;6.55;;
70866;SDS011;58487;53.474;49.470;2022-12-18T07:07:24;20.07;;;9.13;;
70866;SDS011;58487;53.474;49.470;2022-12-18T07:09:50;24.92;;;9.13;;
70866;SDS011;58487;53.474;49.470;2022-12-18T07:12:16;24.48;;;8.57;;
70866;SDS011;58487;53.474;49.470;2022-12-18T07:14:43;26.00;;;10.07;;
70866;SDS011;58487;53.474;49.470;2022-12-18T07:17:09;17.60;;;6.28;;
70866;SDS011;58487;53.474;49.470;2022-12-18T07:19:35;18.13;;;6.60;;
70866;SDS011;58487;53.474;49.470;2022-12-18T07:22:01;29.48;;;9.15;;
70866;SDS011;58487;53.474;49.470;2022-12-18T07:24:27;30.23;;;9.18;;
70866;SDS011;58487;53.474;49.470;2022-12-18T07:26:53;22.65;;;8.60;;
70866;SDS011;58487;53.474;49.470;2022-12-18T07:29:19;23.97;;;8.57;;
70866;SDS011;58487;53.474;49.470;2022-12-18T07:31:46;22.08;;;8.63;;
70866;SDS011;58487;53.474;49.470;2022-12-18T07:34:12;25.08;;;8.80;;
70866;SDS011;58487;53.474;49.470;2022-12-18T07:36:40;22.17;;;8.13;;
70866;SDS011;58487;53.474;49.470;2022-12-18T07:39:10;23.08;;;9.60;;
70866;SDS011;58487;53.474;49.470;2022-12-18T07:41:36;21.23;;;8.97;;
70866;SDS011;58487;53.474;49.470;2022-12-18T07:44:02;26.23;;;9.50;;
70866;SDS011;58487;53.474;49.470;2022-12-18T07:46:28;26.23;;;10.25;;
70866;SDS011;58487;53.474;49.470;2022-12-18T07:48:54;19.88;;;6.63;;
70866;SDS011;58487;53.474;49.470;2022-12-18T07:51:20;20.75;;;8.93;;
70866;SDS011;58487;53.474;49.470;2022-12-18T07:53:47;27.53;;;11.27;;
70866;SDS011;58487;53.474;49.470;2022-12-18T07:56:13;26.55;;;7.90;;
70866;SDS011;58487;53.474;49.470;2022-12-18T07:58:39;24.25;;;8.43;;
70866;SDS011;58487;53.474;49.470;2022-12-18T08:01:08;28.48;;;9.45;;
70866;SDS011;58487;53.474;49.470;2022-12-18T08:03:37;33.65;;;13.65;;
70866;SDS011;58487;53.474;49.470;2022-12-18T08:06:05;22.23;;;9.20;;
70866;SDS011;58487;53.474;49.470;2022-12-18T08:08:33;18.80;;;8.18;;
70866;SDS011;58487;53.474;49.470;2022-12-18T08:11:00;24.63;;;8.13;;
70866;SDS011;58487;53.474;49.470;2022-12-18T08:13:26;20.00;;;8.00;;
70866;SDS011;58487;53.474;49.470;2022-12-18T08:16:00;22.98;;;11.02;;
70866;SDS011;58487;53.474;49.470;2022-12-18T08:18:28;16.77;;;7.20;;
70866;SDS011;58487;53.474;49.470;2022-12-18T08:20:55;20.15;;;8.10;;
70866;SDS011;58487;53.474;49.470;2022-12-18T08:23:21;22.60;;;7.80;;
70866;SDS011;58487;53.474;49.470;2022-12-18T08:25:48;16.13;;;7.30;;
70866;SDS011;58487;53.474;49.470;2022-12-18T08:28:14;21.60;;;7.63;;
70866;SDS011;58487;53.474;49.470;2022-12-18T08:30:40;16.07;;;8.27;;
70866;SDS011;58487;53.474;49.470;2022-12-18T08:33:06;22.30;;;9.95;;
70866;SDS011;58487;53.474;49.470;2022-12-18T08:35:34;19.45;;;8.23;;
70866;SDS011;58487;53.474;49.470;2022-12-18T08:38:02;24.27;;;13.32;;
70866;SDS011;58487;53.474;49.470;2022-12-18T08:40:28;20.50;;;8.15;;
70866;SDS011;58487;53.474;49.470;2022-12-18T08:42:55;20.90;;;9.70;;
70866;SDS011;58487;53.474;49.470;2022-12-18T08:45:39;29.38;;;16.80;;
70866;SDS011;58487;53.474;49.470;2022-12-18T08:48:05;23.50;;;11.63;;
70866;SDS011;58487;53.474;49.470;2022-12-18T08:50:31;20.25;;;7.93;;
70866;SDS011;58487;53.474;49.470;2022-12-18T08:52:57;21.42;;;9.05;;
70866;SDS011;58487;53.474;49.470;2022-12-18T08:55:23;22.70;;;8.70;;
70866;SDS011;58487;53.474;49.470;2022-12-18T08:57:53;18.10;;;7.43;;
70866;SDS011;58487;53.474;49.470;2022-12-18T09:00:19;14.07;;;5.45;;
70866;SDS011;58487;53.474;49.470;2022-12-18T09:02:45;22.52;;;8.40;;
70866;SDS011;58487;53.474;49.470;2022-12-18T09:05:11;20.17;;;10.17;;
70866;SDS011;58487;53.474;49.470;2022-12-18T09:07:37;20.35;;;7.93;;
70866;SDS011;58487;53.474;49.470;2022-12-18T09:10:03;18.27;;;7.05;;
70866;SDS011;58487;53.474;49.470;2022-12-18T09:12:33;21.83;;;11.52;;
70866;SDS011;58487;53.474;49.470;2022-12-18T09:14:59;19.52;;;8.30;;
70866;SDS011;58487;53.474;49.470;2022-12-18T09:17:25;15.07;;;5.30;;
70866;SDS011;58487;53.474;49.470;2022-12-18T09:19:51;15.40;;;5.82;;
70866;SDS011;58487;53.474;49.470;2022-12-18T09:22:17;15.98;;;5.68;;
70866;SDS011;58487;53.474;49.470;2022-12-18T09:24:43;22.00;;;7.05;;
70866;SDS011;58487;53.474;49.470;2022-12-18T09:27:09;16.63;;;7.30;;
70866;SDS011;58487;53.474;49.470;2022-12-18T09:29:35;18.37;;;7.80;;
70866;SDS011;58487;53.474;49.470;2022-12-18T09:32:02;16.05;;;5.30;;
70866;SDS011;58487;53.474;49.470;2022-12-18T09:34:28;13.50;;;4.55;;
70866;SDS011;58487;53.474;49.470;2022-12-18T09:36:54;14.15;;;5.65;;
70866;SDS011;58487;53.474;49.470;2022-12-18T09:39:20;12.00;;;5.32;;
70866;SDS011;58487;53.474;49.470;2022-12-18T09:41:53;15.10;;;6.00;;
70866;SDS011;58487;53.474;49.470;2022-12-18T09:44:27;12.38;;;4.90;;
70866;SDS011;58487;53.474;49.470;2022-12-18T09:49:55;15.68;;;6.57;;
70866;SDS011;58487;53.474;49.470;2022-12-18T09:52:29;15.40;;;5.78;;
70866;SDS011;58487;53.474;49.470;2022-12-18T09:57:49;17.98;;;6.43;;
70866;SDS011;58487;53.474;49.470;2022-12-18T10:00:21;16.77;;;7.57;;
70866;SDS011;58487;53.474;49.470;2022-12-18T10:02:53;17.17;;;7.35;;
70866;SDS011;58487;53.474;49.470;2022-12-18T10:06:28;11.90;;;4.50;;
70866;SDS011;58487;53.474;49.470;2022-12-18T10:08:49;11.87;;;4.33;;
70866;SDS011;58487;53.474;49.470;2022-12-18T10:14:03;13.05;;;5.28;;
70866;SDS011;58487;53.474;49.470;2022-12-18T10:19:32;20.27;;;8.55;;
70866;SDS011;58487;53.474;49.470;2022-12-18T10:22:10;17.27;;;6.53;;
70866;SDS011;58487;53.474;49.470;2022-12-18T10:27:28;16.52;;;7.28;;
70866;SDS011;58487;53.474;49.470;2022-12-18T10:29:56;16.48;;;7.03;;
70866;SDS011;58487;53.474;49.470;2022-12-18T10:32:29;18.50;;;8.10;;
70866;SDS011;58487;53.474;49.470;2022-12-18T10:34:57;16.03;;;5.73;;
70866;SDS011;58487;53.474;49.470;2022-12-18T10:37:25;11.57;;;5.50;;
70866;SDS011;58487;53.474;49.470;2022-12-18T10:42:41;14.65;;;6.07;;
70866;SDS011;58487;53.474;49.470;2022-12-18T10:45:13;10.38;;;4.88;;
70866;SDS011;58487;53.474;49.470;2022-12-18T10:47:44;10.30;;;4.07;;
70866;SDS011;58487;53.474;49.470;2022-12-18T10:50:32;28.25;;;9.77;;
70866;SDS011;58487;53.474;49.470;2022-12-18T10:53:03;12.88;;;4.90;;
70866;SDS011;58487;53.474;49.470;2022-12-18T10:55:34;8.63;;;3.60;;
70866;SDS011;58487;53.474;49.470;2022-12-18T10:58:13;9.88;;;3.33;;
70866;SDS011;58487;53.474;49.470;2022-12-18T11:01:01;11.53;;;3.97;;
70866;SDS011;58487;53.474;49.470;2022-12-18T11:06:10;10.93;;;4.15;;
70866;SDS011;58487;53.474;49.470;2022-12-18T11:09:32;10.60;;;3.75;;
70866;SDS011;58487;53.474;49.470;2022-12-18T11:12:03;9.95;;;4.30;;
70866;SDS011;58487;53.474;49.470;2022-12-18T11:15:15;9.00;;;3.53;;
70866;SDS011;58487;53.474;49.470;2022-12-18T11:17:49;14.35;;;5.38;;
70866;SDS011;58487;53.474;49.470;2022-12-18T11:20:21;13.82;;;5.13;;
70866;SDS011;58487;53.474;49.470;2022-12-18T11:22:55;10.45;;;4.93;;
70866;SDS011;58487;53.474;49.470;2022-12-18T11:25:26;13.30;;;4.82;;
70866;SDS011;58487;53.474;49.470;2022-12-18T11:27:56;12.67;;;5.53;;
70866;SDS011;58487;53.474;49.470;2022-12-18T11:30:29;15.52;;;7.18;;
70866;SDS011;58487;53.474;49.470;2022-12-18T11:32:57;15.45;;;6.65;;
70866;SDS011;58487;53.474;49.470;2022-12-18T11:35:55;14.13;;;6.43;;
70866;SDS011;58487;53.474;49.470;2022-12-18T11:41:04;25.30;;;12.10;;
70866;SDS011;58487;53.474;49.470;2022-12-18T11:43:38;20.60;;;7.15;;
70866;SDS011;58487;53.474;49.470;2022-12-18T11:46:30;31.70;;;12.23;;
70866;SDS011;58487;53.474;49.470;2022-12-18T11:49:25;23.48;;;8.45;;
70866;SDS011;58487;53.474;49.470;2022-12-18T11:54:52;24.93;;;7.80;;
70866;SDS011;58487;53.474;49.470;2022-12-18T12:00:18;28.65;;;10.70;;
70866;SDS011;58487;53.474;49.470;2022-12-18T12:08:27;22.87;;;9.43;;
70866;SDS011;58487;53.474;49.470;2022-12-18T12:22:28;15.90;;;7.13;;
70866;SDS011;58487;53.474;49.470;2022-12-18T12:27:43;23.02;;;9.43;;
70866;SDS011;58487;53.474;49.470;2022-12-18T12:33:57;18.00;;;6.07;;
70866;SDS011;58487;53.474;49.470;2022-12-18T12:36:39;21.93;;;9.13;;
70866;SDS011;58487;53.474;49.470;2022-12-18T12:39:08;18.98;;;8.55;;
70866;SDS011;58487;53.474;49.470;2022-12-18T12:41:39;19.60;;;7.10;;
70866;SDS011;58487;53.474;49.470;2022-12-18T12:45:03;17.30;;;7.47;;
70866;SDS011;58487;53.474;49.470;2022-12-18T12:47:24;16.65;;;7.70;;
70866;SDS011;58487;53.474;49.470;2022-12-18T12:49:56;14.13;;;6.80;;
70866;SDS011;58487;53.474;49.470;2022-12-18T12:55:13;13.68;;;5.53;;
70866;SDS011;58487;53.474;49.470;2022-12-18T12:57:47;18.70;;;9.32;;
70866;SDS011;58487;53.474;49.470;2022-12-18T13:00:28;16.75;;;7.15;;
70866;SDS011;58487;53.474;49.470;2022-12-18T13:03:13;21.27;;;9.93;;
70866;SDS011;58487;53.474;49.470;2022-12-18T13:06:04;20.50;;;8.68;;
70866;SDS011;58487;53.474;49.470;2022-12-18T13:08:51;18.85;;;7.45;;
70866;SDS011;58487;53.474;49.470;2022-12-18T13:11:30;20.00;;;8.55;;
70866;SDS011;58487;53.474;49.470;2022-12-18T13:14:26;12.38;;;5.47;;
70866;SDS011;58487;53.474;49.470;2022-12-18T13:17:13;22.20;;;9.80;;
70866;SDS011;58487;53.474;49.470;2022-12-18T13:19:48;16.45;;;7.65;;
70866;SDS011;58487;53.474;49.470;2022-12-18T13:22:30;18.80;;;7.28;;
70866;SDS011;58487;53.474;49.470;2022-12-18T13:25:00;16.10;;;8.05;;
70866;SDS011;58487;53.474;49.470;2022-12-18T13:36:09;12.00;;;6.03;;
70866;SDS011;58487;53.474;49.470;2022-12-18T13:38:42;12.10;;;4.53;;
70866;SDS011;58487;53.474;49.470;2022-12-18T13:43:49;11.13;;;4.50;;
70866;SDS011;58487;53.474;49.470;2022-12-18T13:51:52;11.57;;;4.70;;
70866;SDS011;58487;53.474;49.470;2022-12-18T13:56:50;8.43;;;3.97;;
70866;SDS011;58487;53.474;49.470;2022-12-18T14:01:45;11.18;;;4.72;;
70866;SDS011;58487;53.474;49.470;2022-12-18T14:04:23;6.40;;;2.90;;
70866;SDS011;58487;53.474;49.470;2022-12-18T14:09:44;10.20;;;4.43;;
70866;SDS011;58487;53.474;49.470;2022-12-18T14:12:16;9.48;;;3.78;;
70866;SDS011;58487;53.474;49.470;2022-12-18T14:15:03;10.05;;;4.30;;
70866;SDS011;58487;53.474;49.470;2022-12-18T14:17:31;10.02;;;4.15;;
70866;SDS011;58487;53.474;49.470;2022-12-18T14:19:57;8.63;;;3.53;;
70866;SDS011;58487;53.474;49.470;2022-12-18T14:22:24;8.07;;;3.07;;
70866;SDS011;58487;53.474;49.470;2022-12-18T14:25:13;10.10;;;4.35;;
70866;SDS011;58487;53.474;49.470;2022-12-18T14:30:37;10.35;;;5.18;;
70866;SDS011;58487;53.474;49.470;2022-12-18T14:33:27;8.13;;;3.80;;
70866;SDS011;58487;53.474;49.470;2022-12-18T14:36:04;10.43;;;4.63;;
70866;SDS011;58487;53.474;49.470;2022-12-18T14:43:39;8.85;;;2.92;;
70866;SDS011;58487;53.474;49.470;2022-12-18T14:51:59;8.77;;;3.35;;
70866;SDS011;58487;53.474;49.470;2022-12-18T14:54:27;8.00;;;3.33;;
70866;SDS011;58487;53.474;49.470;2022-12-18T14:59:30;6.40;;;2.67;;
70866;SDS011;58487;53.474;49.470;2022-12-18T15:04:26;7.72;;;3.28;;
70866;SDS011;58487;53.474;49.470;2022-12-18T15:07:08;5.10;;;1.80;;
70866;SDS011;58487;53.474;49.470;2022-12-18T15:09:43;6.47;;;2.25;;
70866;SDS011;58487;53.474;49.470;2022-12-18T15:12:44;5.75;;;2.60;;
70866;SDS011;58487;53.474;49.470;2022-12-18T15:17:59;3.95;;;1.42;;
70866;SDS011;58487;53.474;49.470;2022-12-18T15:20:26;4.95;;;2.22;;
70866;SDS011;58487;53.474;49.470;2022-12-18T15:22:52;5.53;;;1.88;;
70866;SDS011;58487;53.474;49.470;2022-12-18T15:25:35;6.13;;;2.47;;
70866;SDS011;58487;53.474;49.470;2022-12-18T15:28:13;6.37;;;2.27;;
70866;SDS011;58487;53.474;49.470;2022-12-18T15:31:31;3.95;;;1.70;;
70866;SDS011;58487;53.474;49.470;2022-12-18T15:36:08;4.75;;;1.98;;
70866;SDS011;58487;53.474;49.470;2022-12-18T15:38:36;5.05;;;2.00;;
70866;SDS011;58487;53.474;49.470;2022-12-18T15:41:03;5.57;;;2.03;;
70866;SDS011;58487;53.474;49.470;2022-12-18T15:43:29;5.72;;;2.10;;
70866;SDS011;58487;53.474;49.470;2022-12-18T15:48:33;4.07;;;1.60;;
70866;SDS011;58487;53.474;49.470;2022-12-18T15:51:04;4.82;;;1.38;;
70866;SDS011;58487;53.474;49.470;2022-12-18T15:53:36;6.20;;;3.00;;
70866;SDS011;58487;53.474;49.470;2022-12-18T15:56:04;5.07;;;2.00;;
70866;SDS011;58487;53.474;49.470;2022-12-18T15:58:52;7.07;;;2.35;;
70866;SDS011;58487;53.474;49.470;2022-12-18T16:01:19;5.82;;;2.28;;
70866;SDS011;58487;53.474;49.470;2022-12-18T16:03:51;5.00;;;1.83;;
70866;SDS011;58487;53.474;49.470;2022-12-18T16:06:17;5.43;;;2.40;;
70866;SDS011;58487;53.474;49.470;2022-12-18T16:08:43;5.35;;;1.80;;
70866;SDS011;58487;53.474;49.470;2022-12-18T16:11:42;7.47;;;3.63;;
70866;SDS011;58487;53.474;49.470;2022-12-18T16:14:16;4.57;;;2.00;;
70866;SDS011;58487;53.474;49.470;2022-12-18T16:17:08;7.70;;;3.40;;
70866;SDS011;58487;53.474;49.470;2022-12-18T16:19:31;5.85;;;2.47;;
70866;SDS011;58487;53.474;49.470;2022-12-18T16:21:58;8.43;;;3.90;;
70866;SDS011;58487;53.474;49.470;2022-12-18T16:24:25;8.23;;;3.42;;
70866;SDS011;58487;53.474;49.470;2022-12-18T16:26:55;9.90;;;3.83;;
70866;SDS011;58487;53.474;49.470;2022-12-18T16:29:23;10.63;;;4.10;;
70866;SDS011;58487;53.474;49.470;2022-12-18T16:31:59;10.23;;;3.97;;
70866;SDS011;58487;53.474;49.470;2022-12-18T16:36:54;7.05;;;2.70;;
70866;SDS011;58487;53.474;49.470;2022-12-18T16:39:21;11.65;;;4.45;;
70866;SDS011;58487;53.474;49.470;2022-12-18T16:41:47;9.20;;;3.87;;
70866;SDS011;58487;53.474;49.470;2022-12-18T16:44:14;15.75;;;6.13;;
70866;SDS011;58487;53.474;49.470;2022-12-18T16:46:41;7.88;;;3.13;;
70866;SDS011;58487;53.474;49.470;2022-12-18T16:49:16;8.30;;;4.10;;
70866;SDS011;58487;53.474;49.470;2022-12-18T16:51:47;10.27;;;3.75;;
70866;SDS011;58487;53.474;49.470;2022-12-18T16:54:13;11.77;;;4.60;;
70866;SDS011;58487;53.474;49.470;2022-12-18T16:56:40;9.85;;;4.38;;